Time;durP1;ratioP1;P1;durP2;ratioP2;P2;SDS_P1;SDS_P2;PMS_P1;PMS_P2;Temp;Humidity;BMP_temperature;BMP_pressure;BME280_temperature;BME280_humidity;BME280_pressure;Samples;Min_cycle;Max_cycle;Signal;HPM_P1;HPM_P2
2022/08/02 00:02:19;;;;;;;1.43;1.33;;;;;;;19.87;85.35;100441.81;5027664;28;20857;-52
2022/08/02 00:04:46;;;;;;;1.53;1.43;;;;;;;19.77;85.42;100437.03;5026384;28;20554;-51
2022/08/02 00:07:14;;;;;;;3.00;1.83;;;;;;;19.32;87.50;100434.50;5020393;28;20447;-51
2022/08/02 00:09:41;;;;;;;2.17;1.03;;;;;;;19.56;86.93;100443.78;5020996;28;20835;-51
2022/08/02 00:12:08;;;;;;;2.20;1.20;;;;;;;19.44;87.26;100444.53;5027334;28;20452;-52
2022/08/02 00:14:36;;;;;;;1.27;0.93;;;;;;;19.34;87.67;100451.47;5027279;28;20471;-50
2022/08/02 00:17:03;;;;;;;1.47;1.37;;;;;;;19.38;87.38;100455.72;5026947;28;20575;-51
2022/08/02 00:19:30;;;;;;;1.33;1.23;;;;;;;19.32;87.39;100447.97;5026933;28;20458;-52
2022/08/02 00:21:57;;;;;;;1.00;0.90;;;;;;;19.23;87.65;100444.06;5021033;28;20527;-52
2022/08/02 00:24:23;;;;;;;1.70;1.50;;;;;;;19.17;88.63;100444.41;5020759;28;20507;-51
2022/08/02 00:26:57;;;;;;;1.30;1.20;;;;;;;19.34;87.44;100438.88;5025684;28;20574;-51
2022/08/02 00:29:24;;;;;;;1.67;1.57;;;;;;;19.53;86.90;100452.03;5028801;28;20454;-52
2022/08/02 00:31:50;;;;;;;3.13;0.80;;;;;;;19.35;87.03;100455.91;5024650;28;20531;-52
2022/08/02 00:34:17;;;;;;;0.77;0.67;;;;;;;19.20;87.55;100450.50;5026715;28;20686;-51
2022/08/02 00:36:56;;;;;;;1.03;0.93;;;;;;;19.16;87.50;100450.75;5024301;28;20495;-51
2022/08/02 00:39:23;;;;;;;1.30;1.20;;;;;;;19.03;88.75;100447.09;5029347;28;20535;-52
2022/08/02 00:42:02;;;;;;;2.03;1.70;;;;;;;18.86;89.42;100448.13;5026184;28;20842;-52
2022/08/02 00:44:28;;;;;;;1.80;1.63;;;;;;;18.87;89.35;100452.53;5019696;28;20467;-52
2022/08/02 00:46:55;;;;;;;1.30;1.20;;;;;;;18.91;89.56;100446.00;5032970;28;20483;-52
2022/08/02 00:49:21;;;;;;;1.10;1.00;;;;;;;19.11;88.61;100451.06;5019891;28;20486;-52
2022/08/02 00:51:48;;;;;;;2.10;1.90;;;;;;;19.02;88.93;100446.22;5020174;28;20958;-52
2022/08/02 00:54:14;;;;;;;2.00;1.67;;;;;;;18.94;88.77;100445.84;5026483;28;20491;-52
2022/08/02 00:56:41;;;;;;;1.57;1.40;;;;;;;18.96;89.20;100449.31;5026446;28;20454;-50
2022/08/02 00:59:17;;;;;;;1.37;1.27;;;;;;;18.92;89.26;100443.25;5021465;28;20481;-51
2022/08/02 01:01:44;;;;;;;1.47;1.37;;;;;;;18.96;89.41;100448.44;5019622;28;20480;-51
2022/08/02 01:04:25;;;;;;;1.87;1.73;;;;;;;18.67;89.52;100448.38;5023172;28;20503;-51
2022/08/02 01:06:58;;;;;;;3.20;1.67;;;;;;;18.66;90.31;100452.03;5026570;28;20451;-51
2022/08/02 01:09:25;;;;;;;1.43;1.33;;;;;;;18.70;89.51;100444.63;5024098;28;21003;-52
2022/08/02 01:11:52;;;;;;;1.90;1.80;;;;;;;18.83;90.01;100449.19;5019181;28;20455;-51
2022/08/02 01:14:20;;;;;;;1.63;1.53;;;;;;;18.63;90.85;100447.66;5021890;28;20559;-52
2022/08/02 01:17:15;;;;;;;2.70;1.77;;;;;;;18.97;89.95;100453.72;5027337;28;20445;-52
2022/08/02 01:19:55;;;;;;;1.20;1.10;;;;;;;18.68;90.76;100441.16;5026600;28;20443;-52
2022/08/02 01:22:27;;;;;;;1.20;1.10;;;;;;;18.71;90.53;100444.53;5023512;28;20447;-51
2022/08/02 01:25:43;;;;;;;1.40;1.30;;;;;;;18.54;91.38;100442.81;5020544;28;20464;-51
2022/08/02 01:28:32;;;;;;;0.70;0.70;;;;;;;18.68;90.63;100439.31;4984140;28;20458;-52
2022/08/02 01:31:06;;;;;;;2.60;1.70;;;;;;;18.40;91.00;100440.06;5045533;28;20446;-52
2022/08/02 01:33:43;;;;;;;1.33;1.23;;;;;;;18.33;91.26;100441.34;5022613;28;20454;-51
2022/08/02 01:36:13;;;;;;;1.43;1.33;;;;;;;18.29;91.76;100438.00;5027906;28;20547;-52
2022/08/02 01:38:43;;;;;;;1.30;1.20;;;;;;;18.31;91.84;100441.44;5032511;28;20487;-51
2022/08/02 01:41:16;;;;;;;1.80;1.67;;;;;;;18.20;92.27;100437.63;5018856;28;20454;-51
2022/08/02 01:43:45;;;;;;;1.63;1.53;;;;;;;18.18;92.07;100450.31;5020146;28;20455;-50
2022/08/02 01:46:14;;;;;;;1.97;1.77;;;;;;;18.11;92.83;100448.94;5028017;28;20464;-51
2022/08/02 01:48:43;;;;;;;2.03;1.93;;;;;;;17.92;93.04;100441.91;5019027;28;20476;-50
2022/08/02 01:51:15;;;;;;;1.77;1.67;;;;;;;18.00;93.10;100444.19;5024503;28;20453;-50
2022/08/02 01:53:45;;;;;;;1.67;1.57;;;;;;;18.16;93.05;100446.84;5025424;28;20771;-50
2022/08/02 01:56:14;;;;;;;1.73;1.63;;;;;;;17.99;93.48;100451.38;5021769;28;20475;-51
2022/08/02 01:58:43;;;;;;;12.80;2.00;;;;;;;18.10;92.73;100448.09;5018769;28;21008;-51
2022/08/02 02:01:12;;;;;;;1.83;1.67;;;;;;;18.10;92.79;100441.84;5022168;28;20452;-50
2022/08/02 02:03:45;;;;;;;1.93;1.83;;;;;;;18.08;92.91;100449.09;5025750;28;20499;-51
2022/08/02 02:06:12;;;;;;;1.70;1.60;;;;;;;17.98;93.32;100449.66;5023651;28;20558;-51
2022/08/02 02:08:42;;;;;;;1.43;1.30;;;;;;;17.91;93.88;100452.75;5018912;28;20528;-51
2022/08/02 02:11:09;;;;;;;8.20;2.63;;;;;;;17.92;93.97;100449.09;5019898;28;20977;-51
2022/08/02 02:14:00;;;;;;;1.90;1.80;;;;;;;18.00;93.67;100445.03;5020595;28;20944;-51
2022/08/02 02:16:27;;;;;;;2.07;1.97;;;;;;;17.91;93.91;100448.25;5029230;28;20450;-52
2022/08/02 02:18:54;;;;;;;1.50;1.40;;;;;;;17.81;93.62;100444.31;5021472;28;20491;-51
2022/08/02 02:21:21;;;;;;;1.63;1.53;;;;;;;17.76;93.88;100446.41;5018647;28;20457;-52
2022/08/02 02:23:47;;;;;;;1.67;1.57;;;;;;;17.63;93.63;100442.63;5022773;28;20808;-52
2022/08/02 02:26:17;;;;;;;2.43;2.33;;;;;;;17.59;94.17;100439.25;5025419;28;20452;-51
2022/08/02 02:29:00;;;;;;;1.30;1.13;;;;;;;17.49;95.55;100438.03;5023912;28;20443;-51
2022/08/02 02:31:31;;;;;;;1.87;1.47;;;;;;;17.52;95.31;100435.16;5044904;28;20913;-51
2022/08/02 02:34:08;;;;;;;7.60;1.83;;;;;;;17.39;96.33;100440.34;5019059;28;20547;-52
2022/08/02 02:36:38;;;;;;;2.00;1.90;;;;;;;17.27;97.65;100435.66;5020246;28;20532;-52
2022/08/02 02:39:06;;;;;;;2.33;1.77;;;;;;;17.55;96.44;100448.44;5030327;28;20864;-51
2022/08/02 02:41:40;;;;;;;1.93;1.30;;;;;;;17.50;95.91;100447.81;5021240;28;20459;-51
2022/08/02 02:44:09;;;;;;;2.73;2.03;;;;;;;17.45;96.11;100442.69;5018386;28;20478;-51
2022/08/02 02:46:37;;;;;;;2.30;1.53;;;;;;;17.52;96.08;100440.53;5034371;28;20450;-52
2022/08/02 02:49:04;;;;;;;2.33;2.13;;;;;;;17.52;96.32;100437.84;5022053;28;20992;-51
2022/08/02 02:51:31;;;;;;;1.70;1.60;;;;;;;17.49;96.48;100440.72;5024996;28;20946;-51
2022/08/02 02:53:59;;;;;;;1.83;1.73;;;;;;;17.60;96.68;100437.44;5028646;28;20460;-52
2022/08/02 02:56:46;;;;;;;1.17;1.07;;;;;;;17.46;96.64;100441.75;5028955;28;20441;-51
2022/08/02 02:59:14;;;;;;;2.47;2.37;;;;;;;17.63;96.36;100445.31;5022421;28;20510;-51
2022/08/02 03:01:40;;;;;;;1.50;1.30;;;;;;;17.54;96.33;100448.50;5021873;28;20531;-51
2022/08/02 03:04:25;;;;;;;2.27;1.63;;;;;;;17.40;97.31;100452.81;5025298;28;20474;-51
2022/08/02 03:06:52;;;;;;;1.80;1.70;;;;;;;17.37;96.78;100444.06;5028748;28;20464;-52
2022/08/02 03:09:19;;;;;;;2.10;1.90;;;;;;;17.27;98.28;100445.50;5025457;28;20531;-51
2022/08/02 03:11:47;;;;;;;2.53;1.47;;;;;;;17.19;97.44;100448.63;5021715;28;21023;-51
2022/08/02 03:14:14;;;;;;;4.60;1.77;;;;;;;17.31;97.50;100449.78;5024327;28;20474;-51
2022/08/02 03:16:43;;;;;;;2.17;2.07;;;;;;;17.18;97.83;100439.69;5030551;28;20511;-51
2022/08/02 03:19:10;;;;;;;3.70;2.30;;;;;;;17.20;97.33;100439.59;5025693;28;20570;-52
2022/08/02 03:21:37;;;;;;;1.93;1.83;;;;;;;17.16;97.76;100436.22;5021893;28;20526;-51
2022/08/02 03:24:04;;;;;;;1.50;1.40;;;;;;;17.13;97.80;100435.50;5023493;28;20449;-51
2022/08/02 03:26:31;;;;;;;1.57;1.47;;;;;;;17.00;97.54;100429.06;5028203;28;20449;-51
2022/08/02 03:28:57;;;;;;;1.50;1.20;;;;;;;17.03;98.94;100434.25;5026865;28;20479;-52
2022/08/02 03:31:24;;;;;;;1.73;1.60;;;;;;;17.09;98.28;100431.25;5047513;28;20534;-52
2022/08/02 03:33:51;;;;;;;10.40;1.97;;;;;;;17.15;98.10;100431.78;5022545;28;20449;-51
2022/08/02 03:36:21;;;;;;;2.17;1.70;;;;;;;17.13;97.30;100435.50;5031754;28;20487;-51
2022/08/02 03:38:50;;;;;;;1.37;1.17;;;;;;;17.01;98.24;100438.84;5034509;28;20574;-48
2022/08/02 03:41:17;;;;;;;3.10;2.47;;;;;;;17.04;97.82;100444.06;5021097;28;20818;-49
2022/08/02 03:43:45;;;;;;;1.83;1.73;;;;;;;16.98;98.78;100439.00;5021048;28;20449;-48
2022/08/02 03:46:14;;;;;;;1.60;1.50;;;;;;;17.17;98.66;100445.16;5034198;28;20467;-49
2022/08/02 03:48:41;;;;;;;1.93;1.77;;;;;;;17.03;98.98;100445.00;5021040;28;20451;-52
2022/08/02 03:51:09;;;;;;;2.70;2.03;;;;;;;16.96;99.90;100441.75;5026801;28;20458;-52
2022/08/02 03:53:36;;;;;;;4.40;2.00;;;;;;;17.03;99.46;100440.50;5027463;28;20451;-52
2022/08/02 03:56:04;;;;;;;1.90;1.27;;;;;;;17.00;99.28;100440.66;5022000;28;20482;-51
2022/08/02 03:58:32;;;;;;;2.00;1.90;;;;;;;17.06;98.81;100434.97;5020556;28;20503;-52
2022/08/02 04:00:58;;;;;;;1.20;1.10;;;;;;;17.12;99.43;100437.31;5025439;28;20459;-51
2022/08/02 04:03:25;;;;;;;1.87;1.77;;;;;;;17.15;98.61;100437.16;5027468;28;20447;-51
2022/08/02 04:05:52;;;;;;;2.30;2.20;;;;;;;17.01;99.68;100444.22;5023222;28;20479;-51
2022/08/02 04:08:31;;;;;;;1.40;1.30;;;;;;;16.95;100.00;100440.03;5020748;28;20452;-52
2022/08/02 04:13:49;;;;;;;2.40;2.20;;;;;;;16.99;99.82;100424.59;5021596;28;20535;-51
2022/08/02 04:16:27;;;;;;;1.90;1.80;;;;;;;16.80;100.00;100430.09;5032676;28;20490;-52
2022/08/02 04:18:57;;;;;;;2.93;1.77;;;;;;;16.98;100.00;100444.34;5013866;28;20495;-50
2022/08/02 04:21:34;;;;;;;1.70;1.60;;;;;;;17.08;99.72;100440.25;5026975;28;20721;-51
2022/08/02 04:24:22;;;;;;;3.60;2.10;;;;;;;16.99;100.00;100446.97;5013082;28;20473;-52
2022/08/02 04:26:55;;;;;;;1.90;1.80;;;;;;;16.92;100.00;100440.19;5026006;28;20455;-51
2022/08/02 04:29:30;;;;;;;12.83;1.90;;;;;;;17.07;100.00;100451.94;5029500;28;20453;-52
2022/08/02 04:31:58;;;;;;;7.63;1.90;;;;;;;17.07;100.00;100449.25;5033264;28;20448;-51
2022/08/02 04:34:25;;;;;;;2.87;1.23;;;;;;;17.71;97.56;100451.19;5019999;28;20858;-51
2022/08/02 04:36:51;;;;;;;2.53;2.33;;;;;;;17.52;97.75;100453.09;5032069;28;20455;-52
2022/08/02 04:39:18;;;;;;;1.83;1.73;;;;;;;17.36;99.01;100456.63;5029959;28;20994;-51
2022/08/02 04:41:46;;;;;;;2.13;2.00;;;;;;;17.38;99.71;100454.72;5023577;28;20447;-51
2022/08/02 04:44:13;;;;;;;3.10;1.50;;;;;;;17.47;99.10;100466.81;5019761;28;20472;-52
2022/08/02 04:46:41;;;;;;;2.30;2.10;;;;;;;17.52;98.74;100463.84;5033214;28;20447;-51
2022/08/02 04:49:08;;;;;;;2.20;2.10;;;;;;;17.61;98.72;100472.28;5020020;28;20444;-51
2022/08/02 04:51:39;;;;;;;4.57;2.07;;;;;;;17.64;98.90;100473.94;5022656;28;20460;-51
2022/08/02 04:54:08;;;;;;;2.87;2.67;;;;;;;17.82;98.33;100475.66;5026561;28;20531;-51
2022/08/02 04:56:39;;;;;;;2.73;2.40;;;;;;;18.20;96.45;100486.94;5024963;28;20523;-51
2022/08/02 04:59:06;;;;;;;2.87;2.67;;;;;;;18.63;94.15;100479.97;5019545;28;20583;-51
2022/08/02 05:01:34;;;;;;;3.17;2.13;;;;;;;18.29;95.93;100483.75;5020600;28;20796;-51
2022/08/02 05:04:01;;;;;;;1.60;1.50;;;;;;;18.37;96.00;100480.63;5026275;28;20523;-49
2022/08/02 05:06:28;;;;;;;1.83;1.37;;;;;;;18.46;95.80;100490.84;5025984;28;20454;-49
2022/08/02 05:08:54;;;;;;;1.97;1.87;;;;;;;18.23;96.44;100488.63;5018917;28;20443;-51
2022/08/02 05:11:23;;;;;;;2.03;1.90;;;;;;;18.25;96.86;100484.88;5019939;28;20801;-51
2022/08/02 05:14:04;;;;;;;2.87;2.67;;;;;;;18.32;97.62;100485.38;5021336;28;20455;-52
2022/08/02 05:16:30;;;;;;;3.47;2.70;;;;;;;18.71;96.26;100493.00;5030929;28;20458;-51
2022/08/02 05:19:00;;;;;;;2.60;2.50;;;;;;;19.01;94.83;100490.28;5021568;28;20484;-52
2022/08/02 05:21:28;;;;;;;2.63;2.17;;;;;;;19.33;93.31;100495.56;5019805;28;20536;-51
2022/08/02 05:23:55;;;;;;;7.23;2.30;;;;;;;19.22;93.49;100486.31;5023247;28;20449;-51
2022/08/02 05:26:21;;;;;;;2.40;2.30;;;;;;;19.32;92.81;100483.91;5026066;28;20451;-51
2022/08/02 05:28:48;;;;;;;2.90;2.70;;;;;;;19.92;90.84;100485.59;5022287;28;20871;-51
2022/08/02 05:31:15;;;;;;;2.30;2.10;;;;;;;20.11;88.74;100484.28;5032471;28;20450;-52
2022/08/02 05:33:41;;;;;;;2.70;2.50;;;;;;;19.98;88.20;100483.34;5021799;28;20449;-52
2022/08/02 05:36:08;;;;;;;3.20;3.00;;;;;;;20.06;88.25;100486.44;5028022;28;20473;-52
2022/08/02 05:38:35;;;;;;;3.00;2.27;;;;;;;20.09;88.49;100493.44;5032406;28;20578;-51
2022/08/02 05:41:04;;;;;;;2.43;2.33;;;;;;;19.92;88.89;100488.28;5019385;28;20514;-52
2022/08/02 05:43:31;;;;;;;5.00;2.83;;;;;;;19.92;89.43;100488.28;5021086;28;20449;-52
2022/08/02 05:45:57;;;;;;;3.00;2.80;;;;;;;19.83;89.92;100495.97;5028328;28;20482;-51
2022/08/02 05:48:24;;;;;;;1.90;1.80;;;;;;;19.92;89.97;100482.88;5031528;28;21020;-52
2022/08/02 05:51:10;;;;;;;2.93;2.73;;;;;;;19.92;90.64;100490.97;5019024;28;20447;-51
2022/08/02 05:53:54;;;;;;;3.60;2.00;;;;;;;19.89;90.49;100494.75;5019153;28;21004;-52
2022/08/02 05:56:37;;;;;;;7.43;3.10;;;;;;;19.81;90.78;100481.72;5022354;28;20476;-52
2022/08/02 05:59:30;;;;;;;2.17;2.07;;;;;;;19.90;90.45;100480.28;5025721;28;20491;-52
2022/08/02 06:02:03;;;;;;;2.30;1.70;;;;;;;20.31;89.29;100484.81;5025567;28;20448;-51
2022/08/02 06:04:47;;;;;;;2.57;2.47;;;;;;;20.57;87.54;100485.84;5023445;28;20556;-51
2022/08/02 06:07:17;;;;;;;5.90;4.63;;;;;;;20.91;86.08;100487.09;5018949;28;20463;-51
2022/08/02 06:09:45;;;;;;;2.40;2.30;;;;;;;20.90;85.74;100493.50;5018581;28;20445;-50
2022/08/02 06:12:14;;;;;;;2.70;2.60;;;;;;;20.85;85.79;100492.94;5024941;28;20459;-50
2022/08/02 06:14:42;;;;;;;2.17;2.07;;;;;;;21.07;85.57;100490.50;5026829;28;20857;-50
2022/08/02 06:17:09;;;;;;;12.10;2.50;;;;;;;21.49;83.96;100496.59;5024096;28;20884;-50
2022/08/02 06:19:36;;;;;;;2.70;2.50;;;;;;;21.83;82.83;100501.38;5027018;28;20497;-50
2022/08/02 06:22:18;;;;;;;7.03;2.90;;;;;;;22.05;81.97;100500.69;5026803;28;20530;-51
2022/08/02 06:25:04;;;;;;;2.17;2.07;;;;;;;22.03;81.46;100501.75;5029764;28;20496;-51
2022/08/02 06:27:32;;;;;;;2.83;2.73;;;;;;;22.13;80.99;100494.72;5029471;28;20447;-50
2022/08/02 06:30:01;;;;;;;3.50;2.90;;;;;;;22.31;79.97;100500.63;5023125;28;20443;-51
2022/08/02 06:32:27;;;;;;;2.70;2.50;;;;;;;22.22;79.54;100504.03;5022678;28;20452;-50
2022/08/02 06:34:54;;;;;;;1.90;1.80;;;;;;;21.96;79.58;100498.63;5028466;28;20479;-51
2022/08/02 06:37:26;;;;;;;2.37;2.17;;;;;;;22.33;79.16;100509.50;5029213;28;20962;-51
2022/08/02 06:40:34;;;;;;;2.93;2.80;;;;;;;22.98;76.11;100515.41;5024054;28;21047;-51
2022/08/02 06:43:05;;;;;;;3.17;2.87;;;;;;;22.56;77.36;100505.09;5012218;28;20531;-51
2022/08/02 06:45:33;;;;;;;9.83;2.43;;;;;;;22.76;77.95;100513.47;5030010;28;20460;-50
2022/08/02 06:48:00;;;;;;;2.70;2.60;;;;;;;22.66;77.21;100515.13;5027898;28;20462;-50
2022/08/02 06:50:27;;;;;;;2.03;1.93;;;;;;;23.02;76.02;100514.19;5029202;28;20539;-51
2022/08/02 06:52:53;;;;;;;10.20;2.83;;;;;;;23.33;75.04;100507.28;5023712;28;20457;-51
2022/08/02 06:55:20;;;;;;;2.00;1.90;;;;;;;23.24;75.55;100501.69;5021714;28;20538;-51
2022/08/02 06:57:47;;;;;;;13.83;2.60;;;;;;;23.09;76.38;100501.03;5027276;28;20452;-52
2022/08/02 07:00:14;;;;;;;5.00;2.30;;;;;;;23.04;76.11;100495.97;5028857;28;20538;-51
2022/08/02 07:02:40;;;;;;;2.50;2.40;;;;;;;23.20;75.31;100490.22;5023615;28;20555;-51
2022/08/02 07:05:08;;;;;;;3.60;3.33;;;;;;;23.08;75.16;100496.59;5022126;28;20495;-51
2022/08/02 07:07:34;;;;;;;4.83;2.80;;;;;;;23.19;74.77;100484.91;5026347;28;20962;-51
2022/08/02 07:10:01;;;;;;;2.23;2.13;;;;;;;23.26;73.88;100492.44;5028505;28;20448;-51
2022/08/02 07:12:29;;;;;;;2.80;2.70;;;;;;;23.25;74.60;100495.28;5023669;28;20465;-51
2022/08/02 07:14:57;;;;;;;2.50;2.40;;;;;;;23.24;74.71;100491.69;5024314;28;20957;-51
2022/08/02 07:17:24;;;;;;;2.40;2.30;;;;;;;23.32;74.07;100491.13;5025976;28;20455;-50
2022/08/02 07:19:51;;;;;;;2.77;2.40;;;;;;;23.44;73.39;100492.88;5028852;28;20491;-51
2022/08/02 07:22:19;;;;;;;2.63;2.47;;;;;;;23.48;73.95;100494.34;5024690;28;20447;-51
2022/08/02 07:24:45;;;;;;;2.57;2.07;;;;;;;23.76;73.17;100476.75;5021528;28;20504;-51
2022/08/02 07:27:11;;;;;;;3.00;1.80;;;;;;;24.09;71.49;100484.00;5025293;28;20536;-51
2022/08/02 07:29:39;;;;;;;1.90;1.80;;;;;;;23.66;72.02;100478.47;5031289;28;20440;-52
2022/08/02 07:32:11;;;;;;;2.30;2.20;;;;;;;23.62;72.73;100479.72;5034053;28;20454;-51
2022/08/02 07:34:38;;;;;;;1.97;1.87;;;;;;;23.61;72.97;100473.41;5021398;28;20537;-51
2022/08/02 07:37:08;;;;;;;11.20;2.10;;;;;;;23.83;72.12;100472.53;5032515;28;20506;-51
2022/08/02 07:39:54;;;;;;;7.43;2.37;;;;;;;24.13;71.27;100476.47;5024003;28;20490;-52
2022/08/02 07:42:22;;;;;;;7.60;2.30;;;;;;;24.09;70.79;100473.13;5021494;28;20457;-52
2022/08/02 07:44:49;;;;;;;2.13;2.03;;;;;;;24.29;70.72;100473.34;5029854;28;20481;-52
2022/08/02 07:47:15;;;;;;;2.70;2.60;;;;;;;24.37;70.67;100477.19;5031794;28;20937;-52
2022/08/02 07:49:42;;;;;;;1.80;1.70;;;;;;;24.75;70.00;100475.81;5024156;28;20448;-52
2022/08/02 07:52:09;;;;;;;2.57;1.70;;;;;;;25.46;68.09;100474.22;5020906;28;20961;-52
2022/08/02 07:54:36;;;;;;;3.67;2.37;;;;;;;25.52;66.45;100470.97;5024322;28;20473;-52
2022/08/02 07:57:03;;;;;;;2.00;1.90;;;;;;;25.36;66.97;100465.16;5027897;28;20834;-52
2022/08/02 07:59:29;;;;;;;1.20;1.10;;;;;;;25.10;66.70;100465.56;5024074;28;20488;-52
2022/08/02 08:01:56;;;;;;;2.00;1.77;;;;;;;25.34;66.18;100465.25;5020812;28;20483;-52
2022/08/02 08:04:22;;;;;;;3.67;2.20;;;;;;;25.55;65.02;100465.25;5024369;28;20530;-53
2022/08/02 08:06:51;;;;;;;8.20;2.30;;;;;;;25.63;64.85;100465.44;5027302;28;20467;-52
2022/08/02 08:09:18;;;;;;;1.20;1.10;;;;;;;26.07;63.23;100463.34;5024406;28;20893;-51
2022/08/02 08:11:46;;;;;;;1.17;1.07;;;;;;;25.81;59.53;100464.81;5020510;28;20448;-52
2022/08/02 08:14:12;;;;;;;0.80;0.80;;;;;;;25.91;57.44;100461.16;5023105;28;20491;-52
2022/08/02 08:16:42;;;;;;;1.20;1.10;;;;;;;26.35;55.67;100458.09;5027188;28;20549;-51
2022/08/02 08:19:09;;;;;;;14.13;1.10;;;;;;;26.08;53.48;100461.47;5025386;28;20506;-52
2022/08/02 08:21:35;;;;;;;1.40;1.27;;;;;;;26.29;55.11;100460.38;5020302;28;20968;-52
2022/08/02 08:24:03;;;;;;;1.90;1.33;;;;;;;26.53;54.85;100462.72;5022264;28;20801;-52
2022/08/02 08:26:30;;;;;;;1.30;1.20;;;;;;;26.74;54.44;100465.34;5030995;28;20987;-52
2022/08/02 08:28:56;;;;;;;1.27;1.17;;;;;;;26.69;55.07;100472.22;5021753;28;20448;-51
2022/08/02 08:31:23;;;;;;;0.80;0.80;;;;;;;26.55;55.66;100471.63;5032256;28;20444;-51
2022/08/02 08:33:49;;;;;;;8.10;1.10;;;;;;;27.15;54.45;100469.66;5021733;28;20465;-52
2022/08/02 08:36:16;;;;;;;1.00;0.90;;;;;;;27.85;52.57;100480.28;5030385;28;20466;-51
2022/08/02 08:38:42;;;;;;;0.80;0.80;;;;;;;28.01;51.21;100473.13;5033515;28;20447;-51
2022/08/02 08:41:09;;;;;;;2.50;0.90;;;;;;;27.86;51.29;100471.91;5020045;28;20456;-52
2022/08/02 08:43:36;;;;;;;1.83;1.20;;;;;;;27.96;51.07;100467.28;5021144;28;20427;-51
2022/08/02 08:46:03;;;;;;;1.00;0.93;;;;;;;27.40;51.20;100470.00;5032112;28;20563;-50
2022/08/02 08:48:31;;;;;;;0.77;0.67;;;;;;;27.42;51.63;100465.28;5020711;28;20900;-51
2022/08/02 08:51:18;;;;;;;2.07;1.00;;;;;;;27.60;52.01;100457.19;5026697;28;20445;-51
2022/08/02 08:53:48;;;;;;;4.10;0.80;;;;;;;27.26;50.51;100460.41;5026773;28;20550;-52
2022/08/02 08:56:15;;;;;;;1.17;1.07;;;;;;;27.40;49.05;100456.38;5022541;28;20554;-52
2022/08/02 08:58:44;;;;;;;6.73;1.00;;;;;;;27.43;49.53;100462.41;5019515;28;20479;-52
2022/08/02 09:01:11;;;;;;;1.57;1.47;;;;;;;27.75;49.29;100466.63;5023102;28;20501;-52
2022/08/02 09:03:38;;;;;;;0.70;0.70;;;;;;;28.45;47.41;100451.47;5026664;28;20452;-52
2022/08/02 09:06:05;;;;;;;0.63;0.50;;;;;;;27.68;48.84;100462.78;5023445;28;20468;-53
2022/08/02 09:08:31;;;;;;;1.30;0.60;;;;;;;28.07;48.40;100459.88;5018650;28;20832;-52
2022/08/02 09:10:58;;;;;;;1.10;0.93;;;;;;;28.14;48.16;100461.00;5022828;28;20449;-51
2022/08/02 09:13:30;;;;;;;0.80;0.60;;;;;;;28.45;47.95;100458.81;5026312;28;21084;-51
2022/08/02 09:16:11;;;;;;;0.70;0.70;;;;;;;28.14;46.40;100453.66;5028099;28;20840;-52
2022/08/02 09:18:44;;;;;;;0.60;0.60;;;;;;;28.31;46.10;100462.94;5020361;28;20937;-52
2022/08/02 09:21:13;;;;;;;0.80;0.67;;;;;;;27.91;46.10;100461.38;5019140;28;20448;-52
2022/08/02 09:23:43;;;;;;;0.80;0.70;;;;;;;28.01;44.75;100467.66;5024312;28;21037;-52
2022/08/02 09:26:12;;;;;;;0.70;0.60;;;;;;;27.92;43.86;100462.25;5026186;28;20475;-51
2022/08/02 09:28:41;;;;;;;0.87;0.67;;;;;;;28.49;44.37;100455.59;5021823;28;20451;-52
2022/08/02 09:31:10;;;;;;;0.90;0.90;;;;;;;28.34;42.35;100454.41;5032434;28;20466;-52
2022/08/02 09:33:39;;;;;;;0.70;0.70;;;;;;;27.94;44.04;100457.47;5022617;28;20456;-51
2022/08/02 09:36:11;;;;;;;0.67;0.50;;;;;;;28.51;43.84;100452.69;5027664;28;20957;-52
2022/08/02 09:38:40;;;;;;;0.60;0.43;;;;;;;28.92;43.02;100445.78;5032524;28;20447;-52
2022/08/02 09:41:20;;;;;;;0.70;0.50;;;;;;;29.01;41.98;100450.28;5018999;28;20911;-53
2022/08/02 09:43:46;;;;;;;5.13;1.17;;;;;;;28.79;43.33;100443.41;5019175;28;20429;-51
2022/08/02 09:46:38;;;;;;;0.80;0.80;;;;;;;29.28;41.74;100435.59;5030808;28;20563;-52
2022/08/02 09:49:08;;;;;;;1.07;0.90;;;;;;;29.16;42.49;100445.09;5019316;28;20446;-52
2022/08/02 09:51:38;;;;;;;0.80;0.80;;;;;;;29.27;42.15;100452.19;5021594;28;20487;-52
2022/08/02 09:54:07;;;;;;;5.30;0.93;;;;;;;29.39;42.28;100445.44;5026771;28;20427;-52
2022/08/02 09:56:45;;;;;;;0.80;0.80;;;;;;;29.16;41.98;100439.63;5030736;28;20736;-53
2022/08/02 09:59:12;;;;;;;0.73;0.63;;;;;;;29.04;42.27;100430.81;5025666;28;20426;-52
2022/08/02 10:01:40;;;;;;;1.10;0.83;;;;;;;28.36;43.38;100430.50;5025627;28;20469;-52
2022/08/02 10:04:19;;;;;;;1.00;0.90;;;;;;;28.37;43.83;100425.88;5030173;28;20450;-52
2022/08/02 10:06:49;;;;;;;0.97;0.90;;;;;;;28.59;43.93;100425.44;5032100;28;20510;-52
2022/08/02 10:09:16;;;;;;;0.80;0.80;;;;;;;29.16;42.03;100429.53;5028678;28;20467;-51
2022/08/02 10:11:43;;;;;;;1.90;0.90;;;;;;;29.39;42.40;100424.38;5025337;28;20455;-52
2022/08/02 10:14:10;;;;;;;8.00;0.77;;;;;;;29.51;41.97;100419.53;5028571;28;20468;-52
2022/08/02 10:16:42;;;;;;;0.80;0.70;;;;;;;29.63;40.78;100426.44;5034176;28;20445;-52
2022/08/02 10:19:09;;;;;;;1.10;0.80;;;;;;;29.33;41.57;100427.78;5030052;28;20447;-52
2022/08/02 10:22:02;;;;;;;0.70;0.50;;;;;;;29.74;40.76;100425.28;5025191;28;20790;-52
2022/08/02 10:24:30;;;;;;;1.00;0.63;;;;;;;29.95;41.00;100425.72;5024812;28;20479;-52
2022/08/02 10:26:58;;;;;;;0.87;0.67;;;;;;;29.26;40.82;100414.88;5029821;28;20956;-52
2022/08/02 10:29:36;;;;;;;0.70;0.70;;;;;;;29.61;40.12;100414.78;5034266;28;20447;-52
2022/08/02 10:32:42;;;;;;;0.93;0.93;;;;;;;29.90;39.25;100402.59;5038495;28;20417;-52
2022/08/02 10:35:13;;;;;;;1.37;1.27;;;;;;;30.41;39.48;100408.91;5027971;28;20481;-52
2022/08/02 10:37:59;;;;;;;0.70;0.60;;;;;;;30.21;38.86;100400.97;5036241;28;20487;-52
2022/08/02 10:40:49;;;;;;;0.60;0.40;;;;;;;29.72;39.84;100406.25;5025702;28;20996;-52
2022/08/02 10:43:34;;;;;;;0.73;0.70;;;;;;;30.32;39.01;100399.81;5028012;28;20862;-52
2022/08/02 10:46:34;;;;;;;1.07;0.97;;;;;;;30.04;39.67;100391.81;5033747;28;20554;-52
2022/08/02 10:49:14;;;;;;;1.83;1.20;;;;;;;30.23;39.72;100390.69;5024853;28;20417;-52
2022/08/02 10:52:01;;;;;;;0.60;0.50;;;;;;;30.71;38.92;100391.81;5024967;28;20445;-52
2022/08/02 10:54:33;;;;;;;0.70;0.60;;;;;;;30.86;38.56;100398.34;5030842;28;20458;-52
2022/08/02 10:57:00;;;;;;;0.93;0.83;;;;;;;30.68;37.86;100389.41;5031863;28;20414;-52
2022/08/02 10:59:34;;;;;;;0.60;0.50;;;;;;;30.93;37.07;100395.75;5027108;28;20461;-52
2022/08/02 11:02:04;;;;;;;0.83;0.80;;;;;;;30.59;37.55;100398.66;5025104;28;20447;-54
2022/08/02 11:04:51;;;;;;;0.80;0.67;;;;;;;30.77;37.32;100390.28;5028160;28;20455;-54
2022/08/02 11:07:29;;;;;;;2.20;2.00;;;;;;;30.63;37.26;100391.81;5020914;28;20432;-54
2022/08/02 11:09:58;;;;;;;0.60;0.50;;;;;;;29.94;37.97;100382.03;5021858;28;20459;-54
2022/08/02 11:12:26;;;;;;;1.87;0.60;;;;;;;30.07;38.42;100371.47;5025572;28;20539;-54
2022/08/02 11:15:05;;;;;;;0.70;0.53;;;;;;;30.33;37.83;100380.44;5030740;28;20837;-54
2022/08/02 11:17:53;;;;;;;0.93;0.93;;;;;;;30.07;37.74;100372.31;5024355;28;20423;-54
2022/08/02 11:20:20;;;;;;;1.17;0.50;;;;;;;30.13;37.75;100368.03;5022022;28;20473;-53
2022/08/02 11:22:49;;;;;;;3.90;0.50;;;;;;;30.03;37.92;100368.19;5023694;28;20429;-51
2022/08/02 11:25:22;;;;;;;0.60;0.50;;;;;;;30.81;36.79;100367.78;5027834;28;20482;-51
2022/08/02 11:27:56;;;;;;;2.37;0.90;;;;;;;30.69;37.11;100371.03;5028403;28;20451;-50
2022/08/02 11:30:25;;;;;;;1.43;0.97;;;;;;;30.07;37.91;100366.84;5025448;28;20529;-51
2022/08/02 11:32:57;;;;;;;0.70;0.60;;;;;;;30.79;37.80;100366.25;5030726;28;20449;-51
2022/08/02 11:35:38;;;;;;;1.50;1.33;;;;;;;30.59;37.67;100363.81;5026118;28;21028;-52
2022/08/02 11:38:15;;;;;;;0.70;0.60;;;;;;;30.60;37.30;100359.19;5034722;28;20435;-49
2022/08/02 11:40:42;;;;;;;1.00;0.57;;;;;;;30.28;37.54;100362.75;5021069;28;20842;-48
2022/08/02 11:43:35;;;;;;;0.93;0.70;;;;;;;30.47;38.32;100361.59;5026057;28;20860;-48
2022/08/02 11:46:03;;;;;;;0.60;0.40;;;;;;;31.05;38.25;100353.16;5030340;28;20475;-50